createdAt,value
2018-04-26T00:00:11.439Z,43.06
2018-04-26T00:02:39.797Z,42.37
2018-04-26T00:05:15.075Z,42.79
2018-04-26T00:07:43.464Z,42.68
2018-04-26T00:10:13.397Z,42.93
2018-04-26T00:12:42.401Z,43.09
2018-04-26T00:15:10.781Z,42.95
2018-04-26T00:17:39.201Z,42.96
2018-04-26T00:20:10.020Z,43.15
2018-04-26T00:22:38.391Z,43.04
2018-04-26T00:25:12.314Z,42.49
2018-04-26T00:27:40.721Z,42.96
2018-04-26T00:32:53.178Z,42.17
2018-04-26T00:35:30.332Z,41.91
2018-04-26T00:37:58.506Z,41.87
2018-04-26T00:40:26.916Z,41.70
2018-04-26T00:42:55.900Z,41.29
2018-04-26T00:45:24.304Z,41.41
2018-04-26T00:47:52.677Z,40.98
2018-04-26T00:50:21.562Z,40.70
2018-04-26T00:52:49.934Z,40.40
2018-04-26T00:55:18.319Z,40.57
2018-04-26T00:57:46.704Z,40.79
2018-04-26T01:00:15.090Z,40.60
2018-04-26T01:02:43.460Z,40.60
2018-04-26T01:05:13.504Z,40.43
2018-04-26T01:07:41.883Z,40.20
2018-04-26T01:10:10.299Z,40.55
2018-04-26T01:12:38.916Z,40.60
2018-04-26T01:15:15.759Z,41.16
2018-04-26T01:17:44.142Z,41.06
2018-04-26T01:20:12.748Z,40.76
2018-04-26T01:22:41.125Z,40.34
2018-04-26T01:25:12.821Z,40.66
2018-04-26T01:27:41.603Z,40.84
2018-04-26T01:30:09.740Z,41.02
2018-04-26T01:32:37.879Z,41.38
2018-04-26T01:35:10.177Z,41.52
2018-04-26T01:37:49.005Z,41.91
2018-04-26T01:40:17.382Z,41.96
2018-04-26T01:42:45.755Z,42.36
2018-04-26T01:45:14.125Z,42.92
2018-04-26T01:47:42.498Z,43.16
2018-04-26T01:50:14.625Z,43.70
2018-04-26T01:52:43.010Z,43.87
2018-04-26T01:55:16.025Z,43.61
2018-04-26T01:57:44.398Z,44.30
2018-04-26T02:00:15.531Z,44.78
2018-04-26T02:02:43.907Z,45.10
2018-04-26T02:05:15.878Z,45.48
2018-04-26T02:07:44.257Z,45.96
2018-04-26T02:10:16.302Z,46.54
2018-04-26T02:12:44.669Z,47.05
2018-04-26T02:15:15.938Z,47.47
2018-04-26T02:17:44.084Z,48.35
2018-04-26T02:20:12.231Z,50.34
2018-04-26T02:22:40.606Z,50.74
2018-04-26T02:25:09.620Z,51.56
2018-04-26T02:27:38.139Z,54.11
2018-04-26T02:30:10.203Z,57.46
2018-04-26T02:32:38.607Z,59.40
2018-04-26T02:35:11.342Z,60.65
2018-04-26T02:37:39.746Z,62.79
2018-04-26T02:40:12.404Z,63.10
2018-04-26T02:42:40.768Z,63.89
2018-04-26T02:45:12.657Z,64.62
2018-04-26T02:47:41.058Z,64.97
2018-04-26T02:50:15.053Z,65.04
2018-04-26T02:52:43.465Z,64.57
2018-04-26T02:55:16.232Z,64.69
2018-04-26T02:57:44.629Z,64.85
2018-04-26T03:02:50.887Z,65.07
2018-04-26T03:05:19.265Z,66.48
2018-04-26T03:07:47.645Z,67.46
2018-04-26T03:10:16.681Z,68.20
2018-04-26T03:12:45.057Z,69.10
2018-04-26T03:15:14.034Z,68.86
2018-04-26T03:17:43.146Z,70.12
2018-04-26T03:20:17.525Z,70.65
2018-04-26T03:22:45.897Z,71.26
2018-04-26T03:25:17.168Z,71.78
2018-04-26T03:27:45.551Z,71.68
2018-04-26T03:30:14.061Z,73.27
2018-04-26T03:32:42.433Z,74.03
2018-04-26T03:35:16.169Z,73.78
2018-04-26T03:37:45.387Z,74.29
2018-04-26T03:40:17.055Z,74.98
2018-04-26T03:42:45.434Z,74.78
2018-04-26T03:45:16.253Z,75.13
2018-04-26T03:47:44.668Z,75.13
2018-04-26T03:50:16.708Z,75.05
2018-04-26T03:52:45.084Z,75.65
2018-04-26T03:55:16.676Z,75.64
2018-04-26T03:57:45.690Z,76.01
2018-04-26T04:00:25.236Z,75.95
2018-04-26T04:03:04.604Z,76.34
2018-04-26T04:05:44.167Z,76.31
2018-04-26T04:08:12.553Z,76.40
2018-04-26T04:10:40.632Z,77.01
2018-04-26T04:13:09.001Z,76.61
2018-04-26T04:15:37.433Z,76.90
2018-04-26T04:18:05.837Z,76.46
2018-04-26T04:20:34.225Z,76.40
2018-04-26T04:23:02.613Z,76.59
2018-04-26T04:25:30.992Z,77.18
2018-04-26T04:27:59.442Z,77.24
2018-04-26T04:30:28.039Z,77.54
2018-04-26T04:32:56.410Z,76.95
2018-04-26T04:35:24.876Z,76.12
2018-04-26T04:37:53.175Z,75.23
2018-04-26T04:40:21.569Z,74.48
2018-04-26T04:42:50.003Z,74.54
2018-04-26T04:45:18.554Z,75.74
2018-04-26T04:47:46.918Z,76.78
2018-04-26T04:50:16.224Z,78.01
2018-04-26T04:52:44.602Z,79.37
2018-04-26T04:55:19.325Z,78.04
2018-04-26T04:57:47.706Z,76.87
2018-04-26T05:00:16.096Z,77.68
2018-04-26T05:02:44.468Z,77.16
2018-04-26T05:05:16.325Z,77.82
2018-04-26T05:07:44.738Z,77.98
2018-04-26T05:10:16.908Z,76.88
2018-04-26T05:12:45.315Z,77.24
2018-04-26T05:15:15.876Z,76.39
2018-04-26T05:17:44.360Z,76.25
2018-04-26T05:20:16.108Z,76.03
2018-04-26T05:22:44.499Z,76.29
2018-04-26T05:25:17.929Z,75.55
2018-04-26T05:27:46.298Z,74.73
2018-04-26T05:30:14.685Z,75.75
2018-04-26T05:32:43.066Z,75.12
2018-04-26T05:35:16.653Z,75.19
2018-04-26T05:37:45.074Z,75.14
2018-04-26T05:40:17.572Z,74.30
2018-04-26T05:42:45.942Z,74.66
2018-04-26T05:45:17.451Z,74.98
2018-04-26T05:47:45.622Z,74.75
2018-04-26T05:50:14.640Z,74.42
2018-04-26T05:52:43.472Z,73.86
2018-04-26T05:55:17.016Z,73.30
2018-04-26T05:57:45.391Z,74.21
2018-04-26T06:00:13.758Z,73.85
2018-04-26T06:02:42.137Z,74.42
2018-04-26T06:05:12.152Z,74.93
2018-04-26T06:07:40.534Z,76.05
2018-04-26T06:10:13.249Z,75.05
2018-04-26T06:12:41.636Z,74.14
2018-04-26T06:15:10.010Z,75.21
2018-04-26T06:17:38.381Z,74.31
2018-04-26T06:20:12.869Z,74.74
2018-04-26T06:22:41.232Z,74.61
2018-04-26T06:25:15.129Z,74.52
2018-04-26T06:27:43.504Z,73.11
2018-04-26T06:30:15.598Z,74.06
2018-04-26T06:32:43.974Z,74.14
2018-04-26T06:35:15.726Z,74.69
2018-04-26T06:37:44.111Z,74.65
2018-04-26T06:40:13.831Z,75.80
2018-04-26T06:42:43.819Z,75.47
2018-04-26T06:45:12.648Z,75.82
2018-04-26T06:47:41.025Z,75.72
2018-04-26T06:50:13.827Z,76.62
2018-04-26T06:52:42.200Z,75.35
2018-04-26T06:55:15.068Z,76.01
2018-04-26T06:57:43.428Z,76.92
2018-04-26T07:00:16.468Z,76.70
2018-04-26T07:02:44.868Z,77.54
2018-04-26T07:05:13.236Z,78.16
2018-04-26T07:07:41.614Z,78.00
2018-04-26T07:10:17.856Z,77.90
2018-04-26T07:12:46.237Z,77.65
2018-04-26T07:15:15.681Z,77.86
2018-04-26T07:17:44.057Z,78.55
2018-04-26T07:20:16.175Z,77.62
2018-04-26T07:22:44.542Z,78.15
2018-04-26T07:25:15.569Z,77.56
2018-04-26T07:27:43.933Z,77.42
2018-04-26T07:30:13.888Z,76.86
2018-04-26T07:32:42.258Z,76.72
2018-04-26T07:35:16.478Z,76.92
2018-04-26T07:37:44.845Z,77.52
2018-04-26T07:40:13.212Z,77.90
2018-04-26T07:42:41.579Z,77.97
2018-04-26T07:45:16.380Z,78.02
2018-04-26T07:47:44.761Z,78.15
2018-04-26T07:50:16.273Z,78.14
2018-04-26T07:52:44.645Z,78.27
2018-04-26T07:55:13.096Z,79.44
2018-04-26T07:57:41.480Z,79.72
2018-04-26T08:00:15.799Z,79.67
2018-04-26T08:02:44.336Z,79.98
2018-04-26T08:05:13.101Z,80.04
2018-04-26T08:07:41.490Z,79.47
2018-04-26T08:10:15.492Z,79.74
2018-04-26T08:12:43.875Z,79.59
2018-04-26T08:15:13.585Z,80.44
2018-04-26T08:17:41.966Z,79.11
2018-04-26T08:20:10.341Z,79.32
2018-04-26T08:22:39.933Z,79.96
2018-04-26T08:25:09.465Z,80.80
2018-04-26T08:27:37.852Z,80.78
2018-04-26T08:30:10.631Z,80.71
2018-04-26T08:32:39.010Z,79.06
2018-04-26T08:35:08.695Z,79.88
2018-04-26T08:37:36.827Z,79.38
2018-04-26T08:42:39.484Z,79.52
2018-04-26T08:45:14.407Z,79.57
2018-04-26T08:47:42.804Z,79.76
2018-04-26T08:50:15.965Z,79.31
2018-04-26T08:52:44.342Z,79.44
2018-04-26T08:55:17.659Z,79.96
2018-04-26T08:57:46.032Z,79.50
2018-04-26T09:00:14.394Z,79.82
2018-04-26T09:02:43.181Z,78.58
2018-04-26T09:05:15.952Z,78.15
2018-04-26T09:07:44.328Z,78.61
2018-04-26T09:10:14.786Z,78.40
2018-04-26T09:12:43.189Z,77.58
2018-04-26T09:15:16.474Z,78.01
2018-04-26T09:17:44.618Z,78.32
2018-04-26T09:20:12.778Z,77.24
2018-04-26T09:22:41.143Z,76.75
2018-04-26T09:25:15.461Z,77.94
2018-04-26T09:27:43.835Z,77.09
2018-04-26T09:30:12.328Z,77.70
2018-04-26T09:32:40.806Z,77.26
2018-04-26T09:35:12.259Z,76.75
2018-04-26T09:37:40.656Z,76.33
2018-04-26T09:40:16.184Z,76.64
2018-04-26T09:42:44.554Z,75.74
2018-04-26T09:45:12.929Z,76.39
2018-04-26T09:47:41.293Z,75.87
2018-04-26T09:50:13.148Z,75.54
2018-04-26T09:52:41.525Z,76.44
2018-04-26T09:55:16.589Z,76.45
2018-04-26T09:57:45.781Z,75.67
2018-04-26T10:00:14.872Z,76.08
2018-04-26T10:02:47.473Z,75.90
2018-04-26T10:05:16.425Z,76.99
2018-04-26T10:07:44.802Z,77.16
2018-04-26T10:10:13.185Z,77.90
2018-04-26T10:12:41.560Z,77.58
2018-04-26T10:15:16.732Z,78.94
2018-04-26T10:17:45.105Z,77.25
2018-04-26T10:20:14.895Z,77.87
2018-04-26T10:22:43.321Z,78.09
2018-04-26T10:25:15.023Z,76.20
2018-04-26T10:27:43.394Z,77.36
2018-04-26T10:30:15.193Z,77.85
2018-04-26T10:32:43.577Z,78.28
2018-04-26T10:35:12.695Z,78.77
2018-04-26T10:37:41.085Z,78.73
2018-04-26T10:40:15.431Z,76.47
2018-04-26T10:42:43.830Z,76.31
2018-04-26T10:45:12.205Z,74.60
2018-04-26T10:47:40.608Z,74.78
2018-04-26T10:50:12.482Z,73.37
2018-04-26T10:52:40.880Z,73.84
2018-04-26T10:55:13.225Z,73.79
2018-04-26T10:57:41.572Z,73.64
2018-04-26T11:00:15.806Z,74.40
2018-04-26T11:02:44.270Z,74.41
2018-04-26T11:05:16.443Z,73.23
2018-04-26T11:07:44.818Z,72.99
2018-04-26T11:10:14.124Z,73.23
2018-04-26T11:12:42.486Z,73.51
2018-04-26T11:15:14.776Z,72.70
2018-04-26T11:17:44.700Z,71.70
2018-04-26T11:20:13.094Z,72.90
2018-04-26T11:22:41.489Z,72.00
2018-04-26T11:25:10.112Z,73.01
2018-04-26T11:27:39.426Z,73.41
2018-04-26T11:30:07.804Z,72.45
2018-04-26T11:32:36.597Z,73.04
2018-04-26T11:35:05.038Z,73.08
2018-04-26T11:37:33.412Z,72.70
2018-04-26T11:40:01.784Z,73.57
2018-04-26T11:42:30.174Z,71.39
2018-04-26T11:44:59.389Z,71.25
2018-04-26T11:47:27.754Z,70.21
2018-04-26T11:49:56.115Z,69.87
2018-04-26T11:52:24.514Z,70.51
2018-04-26T11:54:53.109Z,69.19
2018-04-26T11:57:21.495Z,67.67
2018-04-26T11:59:49.880Z,68.17
2018-04-26T12:02:18.269Z,67.82
2018-04-26T12:04:46.830Z,68.73
2018-04-26T12:07:15.204Z,67.69
2018-04-26T12:09:43.584Z,67.55
2018-04-26T12:12:11.952Z,68.18
2018-04-26T12:14:40.338Z,67.65
2018-04-26T12:17:08.709Z,67.76
2018-04-26T12:19:37.077Z,67.62
2018-04-26T12:22:05.455Z,67.64
2018-04-26T12:24:33.833Z,67.64
2018-04-26T12:27:02.848Z,68.80
2018-04-26T12:29:31.211Z,66.97
2018-04-26T12:31:59.600Z,66.57
2018-04-26T12:34:27.968Z,67.83
2018-04-26T12:36:56.345Z,66.34
2018-04-26T12:39:25.185Z,66.32
2018-04-26T12:41:53.580Z,66.37
2018-04-26T12:44:21.990Z,65.77
2018-04-26T12:46:50.422Z,65.57
2018-04-26T12:49:18.807Z,65.40
2018-04-26T12:51:47.176Z,65.02
2018-04-26T12:54:15.573Z,65.25
2018-04-26T12:59:42.559Z,63.85
2018-04-26T13:02:10.719Z,63.86
2018-04-26T13:04:39.309Z,65.09
2018-04-26T13:07:07.687Z,64.06
2018-04-26T13:09:36.074Z,64.52
2018-04-26T13:12:04.200Z,63.76
2018-04-26T13:14:32.557Z,63.70
2018-04-26T13:17:00.937Z,63.21
2018-04-26T13:19:29.301Z,63.31
2018-04-26T13:21:57.456Z,63.42
2018-04-26T13:24:25.815Z,63.51
2018-04-26T13:26:54.589Z,63.62
2018-04-26T13:29:22.968Z,63.06
2018-04-26T13:31:51.343Z,63.87
2018-04-26T13:34:19.765Z,62.99
2018-04-26T13:36:48.136Z,63.39
2018-04-26T13:39:16.516Z,63.49
2018-04-26T13:41:44.912Z,62.93
2018-04-26T13:44:13.288Z,63.19
2018-04-26T13:46:41.707Z,63.81
2018-04-26T13:49:10.081Z,63.89
2018-04-26T13:51:38.441Z,63.48
2018-04-26T13:54:07.322Z,64.42
2018-04-26T13:56:36.337Z,63.24
2018-04-26T13:59:04.749Z,63.72
2018-04-26T14:01:33.122Z,63.18
2018-04-26T14:04:01.499Z,62.74
2018-04-26T14:06:29.884Z,63.12
2018-04-26T14:08:58.256Z,63.24
2018-04-26T14:11:26.757Z,63.11
2018-04-26T14:13:55.125Z,63.77
2018-04-26T14:16:23.852Z,62.27
2018-04-26T14:18:52.216Z,63.17
2018-04-26T14:21:20.597Z,63.51
2018-04-26T14:23:48.964Z,64.18
2018-04-26T14:26:17.685Z,63.21
2018-04-26T14:28:46.952Z,62.67
2018-04-26T14:31:15.314Z,62.21
2018-04-26T14:33:43.698Z,63.99
2018-04-26T14:36:12.222Z,64.15
2018-04-26T14:38:40.581Z,64.78
2018-04-26T14:41:08.965Z,65.11
2018-04-26T14:43:37.346Z,65.68
2018-04-26T14:46:05.709Z,64.32
2018-04-26T14:48:34.076Z,66.23
2018-04-26T14:51:02.442Z,64.54
2018-04-26T14:53:30.833Z,64.20
2018-04-26T14:55:59.208Z,63.01
2018-04-26T14:58:27.584Z,64.31
2018-04-26T15:00:57.034Z,64.21
2018-04-26T15:03:25.414Z,64.44
2018-04-26T15:05:53.876Z,62.77
2018-04-26T15:08:22.257Z,62.72
2018-04-26T15:10:50.646Z,62.40
2018-04-26T15:13:19.051Z,62.28
2018-04-26T15:15:47.465Z,61.90
2018-04-26T15:18:15.854Z,62.67
2018-04-26T15:20:44.569Z,62.95
2018-04-26T15:23:13.651Z,62.01
2018-04-26T15:25:42.055Z,63.55
2018-04-26T15:28:10.444Z,63.62
2018-04-26T15:30:38.906Z,63.59
2018-04-26T15:33:07.469Z,63.13
2018-04-26T15:35:35.899Z,64.40
2018-04-26T15:38:04.293Z,64.51
2018-04-26T15:40:32.659Z,64.86
2018-04-26T15:43:01.292Z,65.08
2018-04-26T15:45:29.670Z,67.01
2018-04-26T15:47:58.048Z,66.50
2018-04-26T15:53:34.803Z,66.31
2018-04-26T15:59:25.517Z,65.22
2018-04-26T16:02:31.209Z,64.33
2018-04-26T16:05:16.303Z,63.37
2018-04-26T16:08:01.129Z,63.21
2018-04-26T16:10:45.920Z,63.43
2018-04-26T16:16:47.578Z,62.57
2018-04-26T16:19:34.875Z,62.29
2018-04-26T16:22:20.711Z,62.41
2018-04-26T16:25:00.068Z,61.99
2018-04-26T16:27:44.789Z,62.31
2018-04-26T16:30:24.209Z,60.99
2018-04-26T16:33:05.598Z,61.25
2018-04-26T16:35:45.173Z,60.24
2018-04-26T16:38:24.576Z,60.09
2018-04-26T16:40:52.966Z,58.83
2018-04-26T16:43:21.556Z,59.35
2018-04-26T16:45:49.964Z,58.12
2018-04-26T16:48:18.362Z,56.49
2018-04-26T16:50:47.275Z,57.21
2018-04-26T16:53:16.085Z,56.62
2018-04-26T16:55:44.717Z,56.57
2018-04-26T16:58:13.127Z,55.79
2018-04-26T17:00:41.512Z,55.40
2018-04-26T17:03:09.901Z,55.32
2018-04-26T17:05:38.439Z,53.88
2018-04-26T17:08:06.801Z,54.21
2018-04-26T17:10:35.171Z,54.96
2018-04-26T17:13:03.562Z,54.92
2018-04-26T17:15:31.957Z,54.69
2018-04-26T17:18:00.321Z,54.47
2018-04-26T17:20:28.708Z,55.24
2018-04-26T17:22:57.082Z,54.80
2018-04-26T17:25:25.477Z,54.95
2018-04-26T17:27:53.873Z,55.62
2018-04-26T17:30:22.442Z,55.40
2018-04-26T17:32:50.828Z,55.42
2018-04-26T17:35:19.808Z,55.21
2018-04-26T17:37:48.195Z,55.49
2018-04-26T17:40:16.659Z,55.40
2018-04-26T17:42:45.165Z,55.89
2018-04-26T17:45:13.524Z,55.81
2018-04-26T17:47:41.900Z,55.38
2018-04-26T17:50:10.488Z,56.17
2018-04-26T17:52:39.192Z,55.84
2018-04-26T17:55:07.607Z,56.19
2018-04-26T17:57:35.981Z,56.76
2018-04-26T18:00:04.237Z,56.44
2018-04-26T18:02:32.830Z,56.33
2018-04-26T18:05:01.235Z,56.86
2018-04-26T18:07:29.656Z,57.28
2018-04-26T18:09:58.092Z,57.24
2018-04-26T18:12:26.477Z,57.10
2018-04-26T18:14:55.678Z,57.49
2018-04-26T18:17:24.059Z,57.17
2018-04-26T18:20:01.038Z,57.50
2018-04-26T18:22:21.032Z,57.14
2018-04-26T18:24:50.181Z,57.15
2018-04-26T18:27:18.564Z,57.64
2018-04-26T18:29:46.936Z,57.54
2018-04-26T18:32:16.192Z,57.44
2018-04-26T18:34:45.222Z,57.62
2018-04-26T18:37:13.603Z,58.38
2018-04-26T18:39:41.983Z,58.49
2018-04-26T18:42:10.362Z,58.66
2018-04-26T18:44:38.781Z,58.86
2018-04-26T18:47:07.175Z,58.94
2018-04-26T18:49:35.584Z,58.95
2018-04-26T18:52:04.105Z,59.01
2018-04-26T18:54:32.610Z,59.00
2018-04-26T18:57:01.204Z,59.18
2018-04-26T18:59:30.023Z,59.02
2018-04-26T19:01:58.765Z,59.33
2018-04-26T19:04:27.145Z,58.81
2018-04-26T19:06:56.114Z,59.04
2018-04-26T19:09:24.486Z,59.14
2018-04-26T19:11:53.317Z,59.50
2018-04-26T19:14:21.693Z,59.31
2018-04-26T19:16:50.076Z,59.38
2018-04-26T19:19:18.442Z,59.68
2018-04-26T19:21:46.965Z,59.29
2018-04-26T19:24:15.545Z,59.64
2018-04-26T19:26:43.954Z,59.48
2018-04-26T19:29:13.340Z,59.58
2018-04-26T19:31:41.713Z,59.42
2018-04-26T19:34:10.085Z,59.38
2018-04-26T19:36:39.102Z,59.61
2018-04-26T19:39:08.197Z,59.45
2018-04-26T19:41:36.611Z,59.48
2018-04-26T19:44:04.977Z,59.47
2018-04-26T19:46:33.350Z,59.22
2018-04-26T19:49:01.718Z,59.01
2018-04-26T19:51:30.097Z,58.69
2018-04-26T19:53:58.506Z,58.87
2018-04-26T19:56:26.895Z,58.83
2018-04-26T19:58:55.259Z,58.05
2018-04-26T20:01:23.913Z,58.32
2018-04-26T20:03:53.705Z,58.03
2018-04-26T20:06:22.095Z,58.43
2018-04-26T20:08:50.483Z,58.27
2018-04-26T20:11:19.042Z,58.08
2018-04-26T20:13:47.412Z,58.13
2018-04-26T20:16:15.804Z,58.35
2018-04-26T20:18:44.169Z,58.28
2018-04-26T20:21:12.631Z,58.72
2018-04-26T20:23:41.130Z,58.57
2018-04-26T20:26:09.506Z,58.88
2018-04-26T20:28:37.869Z,58.93
2018-04-26T20:31:06.726Z,58.86
2018-04-26T20:33:35.101Z,58.83
2018-04-26T20:36:03.517Z,58.99
2018-04-26T20:38:32.081Z,58.71
2018-04-26T20:41:00.466Z,58.75
2018-04-26T20:43:28.840Z,58.58
2018-04-26T20:45:57.497Z,58.57
2018-04-26T20:48:36.975Z,58.28
2018-04-26T20:51:05.353Z,58.55
2018-04-26T20:53:33.994Z,58.87
2018-04-26T20:56:02.377Z,58.69
2018-04-26T20:58:30.960Z,58.77
2018-04-26T21:00:59.343Z,58.69
2018-04-26T21:03:27.717Z,58.91
2018-04-26T21:05:56.099Z,59.01
2018-04-26T21:08:24.511Z,58.90
2018-04-26T21:10:53.070Z,58.91
2018-04-26T21:13:21.439Z,59.05
2018-04-26T21:15:49.812Z,59.12
2018-04-26T21:18:18.217Z,59.08
2018-04-26T21:20:46.586Z,59.20
2018-04-26T21:23:15.189Z,59.48
2018-04-26T21:25:43.556Z,59.40
2018-04-26T21:28:11.924Z,59.44
2018-04-26T21:30:40.309Z,59.61
2018-04-26T21:33:08.677Z,59.65
2018-04-26T21:35:37.141Z,59.91
2018-04-26T21:38:05.614Z,59.79
2018-04-26T21:40:34.009Z,60.13
2018-04-26T21:43:02.386Z,60.21
2018-04-26T21:45:30.792Z,60.34
2018-04-26T21:47:59.162Z,60.29
2018-04-26T21:50:32.863Z,60.44
2018-04-26T21:53:06.477Z,60.28
2018-04-26T21:55:40.228Z,60.32
2018-04-26T21:58:13.865Z,60.45
2018-04-26T22:00:47.538Z,60.46
2018-04-26T22:03:18.093Z,60.50
2018-04-26T22:05:46.474Z,60.39
2018-04-26T22:08:14.863Z,60.21
2018-04-26T22:10:43.258Z,60.41
2018-04-26T22:13:12.385Z,60.50
2018-04-26T22:15:40.801Z,60.41
2018-04-26T22:18:09.197Z,60.72
2018-04-26T22:20:37.561Z,60.88
2018-04-26T22:23:05.933Z,61.19
2018-04-26T22:25:34.293Z,60.81
2018-04-26T22:28:03.229Z,60.94
2018-04-26T22:30:31.632Z,61.13
2018-04-26T22:33:00.018Z,61.43
2018-04-26T22:35:28.387Z,61.61
2018-04-26T22:37:56.870Z,61.77
2018-04-26T22:40:25.228Z,61.85
2018-04-26T22:42:53.611Z,61.90
2018-04-26T22:45:22.616Z,61.98
2018-04-26T22:47:50.999Z,62.16
2018-04-26T22:50:19.371Z,62.51
2018-04-26T22:52:47.751Z,62.52
2018-04-26T22:55:16.158Z,62.68
2018-04-26T22:57:44.763Z,62.70
2018-04-26T23:00:12.965Z,62.87
2018-04-26T23:02:41.342Z,62.77
2018-04-26T23:05:09.741Z,63.04
2018-04-26T23:07:38.225Z,63.17
2018-04-26T23:10:07.555Z,63.19
2018-04-26T23:12:36.556Z,63.22
2018-04-26T23:15:05.008Z,63.13
2018-04-26T23:17:33.409Z,63.17
2018-04-26T23:20:01.872Z,63.26
2018-04-26T23:22:30.302Z,63.10
2018-04-26T23:24:59.034Z,63.07
2018-04-26T23:27:27.483Z,63.25
2018-04-26T23:29:56.005Z,63.58
2018-04-26T23:32:25.015Z,63.84
2018-04-26T23:34:53.424Z,64.15
2018-04-26T23:37:21.788Z,64.32
2018-04-26T23:39:50.426Z,64.29
2018-04-26T23:42:18.803Z,64.33
2018-04-26T23:44:47.184Z,64.24
2018-04-26T23:47:15.553Z,64.57
2018-04-26T23:49:43.925Z,64.41
2018-04-26T23:52:12.289Z,64.85
2018-04-26T23:54:40.800Z,65.00
2018-04-26T23:57:09.207Z,65.19
2018-04-26T23:59:37.762Z,65.64
